Verona, Wisconsin
Current Conditions -  °F | °C
As of 7:55 PM on Saturday 25 Oct 2014 (Local Time) from KC29 Reporting Station
Clear Clear  
Wind Chill: 53°   Ceiling: Unl
Heat Index: 53°   Visibility: 10mi
Dew Point: 25°   Wind: 7mph
Humidity: 34%   Direction: 290°WNW
Pressure: 29.99"   Gusts: NA
Location:  42.99°N, 89.53°W
Report Text: KC29 260055Z AUTO 29006KT 10SM CLR 12/M04 A2999 RMK AO1 T01181037
Loading
Personal Weather Stations






























Interactive Weather Map
Tropical Storm Tracking
New forecast layout! Learn more

10-Day Weather Forecast

Advertisements
Track Severe Weather on mobile